GALLO VINEYARDS WEATHER NETWORK
                           Weekly Meteorological Summary
                                Station: Claussen

              T e m p e r a t u r e   Avg   Max   Min     W  I  N   D     Total  Daily  Daily   Seas    Cont        Mildew    Min
              Max Occur   Min Occur DewPt    RH    RH   Avg   Max  Gust  SolRad    ETo Precip Precip   Hours Hours  Stress    Bat
   Date         F  Time     F  Time     F     %     %   mph   mph   Dir Cal/cm2     In     In  7/1->  70-85F  >95F     Pts  Volts
---------------------------------------------------------------------------------------------------------------------------------
  05/13/18   81.2  1608  48.8   604  50.6    94    37   4.6  20.5     W     664   0.22   0.00   8.29     8.1   0.0     100   12.6
  05/14/18   79.3  1433  52.4   515  49.8    85    37   5.6  19.8     W     668   0.22   0.00   8.29     7.3   0.0     100   12.6
  05/15/18   77.4  1549  52.1   610  49.0    84    39   6.7  22.1     W     656   0.22   0.00   8.29     6.5   0.0     100   12.6
  05/16/18   77.7  1501  54.6   509  47.1    80    33   5.4  21.9     W     542   0.18   0.00   8.29     5.1   0.0      90   12.6
  05/17/18   83.1  1534  46.1   504  50.8    96    36   5.4  23.6     W     668   0.23   0.00   8.29     8.6   0.0     100   12.6
  05/18/18   83.8  1524  54.1   429  52.8    86    40   6.6  19.9   WSW     662   0.22   0.00   8.29     7.9   0.0     100   12.6
  05/19/18   75.6  1541  54.1   549  49.3    82    42   8.8  25.3     W     679   0.22   0.00   8.29     5.8   0.0      90   12.6

                                                                                                                                     
   Avg/Tot   79.7        51.7        49.9    87    38   6.2  21.9           648   1.50   0.00           49.2   0.0
=================================================================================================================================
  Hourly Observations
                         Dew          Hourly     Max  SolRad   Hrly   -----Since Midnight-----
                  Temp    Pt    RH  Wind  Wind  Gust   Watts   Prec   Prec    ETo  MinT   MaxT
   Date    Time      F     F     %   Dir   mph   mph     /m2     In     in     In     F      F
----------------------------------------------------------------------------------------------
  05/20/18 1900   59.7  46.8    62     W  11.2  27.4     182   0.00   0.00  0.195   52.5  72.3
  05/20/18 1800   63.3  45.9    53   WSW  11.6  25.4     372   0.00   0.00  0.189   52.5  72.3
  05/20/18 1700   67.5  47.4    48     W  11.8  24.8     579   0.00   0.00  0.178   52.5  72.3
  05/20/18 1600   67.4  47.9    49     W  12.1  25.5     664   0.00   0.00  0.161   52.5  72.3
  05/20/18 1500   71.9  49.0    44     W  10.3  25.0     885   0.00   0.00  0.143   52.5  72.3
  05/20/18 1400   70.4  49.1    47     W  10.4  20.8     952   0.00   0.00  0.119   52.5  71.5
  05/20/18 1300   68.6  49.3    50     W  10.1  25.0     924   0.00   0.00  0.095   52.5  70.6
  05/20/18 1200   65.5  48.4    54     W  10.4  21.3     800   0.00   0.00  0.072   52.5  67.7
  05/20/18 1100   66.0  49.6    55     W   9.8  20.3     724   0.00   0.00  0.052   52.5  66.0
  05/20/18 1000   61.0  48.1    63     W  10.6  23.1     560   0.00   0.00  0.035   52.5  62.5
  05/20/18 0900   60.1  48.3    65     W  10.0  22.9     411   0.00   0.00  0.022   52.5  60.4
  05/20/18 0800   59.1  49.0    69     W   7.8  20.1     253   0.00   0.00  0.012   52.5  59.1
  05/20/18 0700   56.0  48.6    76     W   6.1  16.0      70   0.00   0.00  0.005   52.5  56.0
  05/20/18 0600   52.8  48.1    84     W   5.7  13.0       1   0.00   0.00  0.003   52.5  55.0
  05/20/18 0500   52.9  48.0    83     W   6.8  17.5       0   0.00   0.00  0.002   52.9  55.0
  05/20/18 0400   53.5  47.6    81     W   6.5  15.0       0   0.00   0.00  0.002   53.4  55.0
  05/20/18 0300   54.0  47.0    77     W   8.0  19.0       0   0.00   0.00  0.002   53.9  55.0
  05/20/18 0200   54.2  46.6    76     W   8.1  16.9       0   0.00   0.00  0.001   54.0  55.0
  05/20/18 0100   54.6  47.0    75     W   7.5  20.5       0   0.00   0.00  0.001   54.3  55.0
  05/20/18 0000   54.9  46.7    74   WSW   6.9  15.9       0   0.00   0.00  0.220   54.1  75.6
  05/19/18 2300   55.4  46.4    72     W   6.0  17.0       0   0.00   0.00  0.219   54.1  75.6
  05/19/18 2200   55.6  46.7    72     W   8.6  20.5       0   0.00   0.00  0.219   54.1  75.6
  05/19/18 2100   56.2  46.9    71     W   9.3  24.9       2   0.00   0.00  0.218   54.1  75.6
  05/19/18 2000   57.7  46.5    66     W  10.4  25.3      57   0.00   0.00  0.217   54.1  75.6
  05/19/18 1900   62.1  46.9    57     W   9.4  23.0     230   0.00   0.00  0.215   54.1  75.6
  05/19/18 1800   68.1  49.4    51     W  10.8  24.3     443   0.00   0.00  0.207   54.1  75.6
  05/19/18 1700   71.1  50.4    48   WSW  11.3  23.8     622   0.00   0.00  0.194   54.1  75.6
  05/19/18 1600   72.4  51.0    47     W  11.0  24.8     775   0.00   0.00  0.175   54.1  75.6
  05/19/18 1500   74.2  51.1    44     W  11.4  23.3     887   0.00   0.00  0.153   54.1  75.1
  05/19/18 1400   73.7  51.8    46     W  10.9  22.3     944   0.00   0.00  0.128   54.1  75.0
  05/19/18 1300   73.0  51.9    47     W  10.5  20.4     945   0.00   0.00  0.102   54.1  73.8
  05/19/18 1200   70.8  52.1    52   WSW   9.8  21.0     878   0.00   0.00  0.078   54.1  71.5
  05/19/18 1100   67.2  51.4    57   WSW  10.0  20.4     760   0.00   0.00  0.055   54.1  68.5
  05/19/18 1000   65.8  50.7    58     W  10.4  21.5     617   0.00   0.00  0.036   54.1  65.8
  05/19/18 0900   61.4  50.2    67     W  10.3  23.7     428   0.00   0.00  0.022   54.1  62.2
  05/19/18 0800   59.1  49.5    70     W   8.3  18.6     226   0.00   0.00  0.011   54.1  59.4
  05/19/18 0700   57.2  49.3    75     W   7.9  19.6      76   0.00   0.00  0.005   54.1  57.3
  05/19/18 0600   54.4  48.8    81     W   7.9  17.1       2   0.00   0.00  0.002   54.1  56.6
  05/19/18 0500   54.6  48.6    80     W   7.5  18.4       0   0.00   0.00  0.001   54.6  56.6
  05/19/18 0400   55.1  48.8    79     W   7.3  15.8       0   0.00   0.00  0.001   54.9  56.6
  05/19/18 0300   55.4  49.0    79     W   5.8  16.4       0   0.00   0.00  0.000   55.2  56.6
  05/19/18 0200   55.7  49.4    79     W   5.2  13.9       0   0.00   0.00  0.000   55.4  56.6
  05/19/18 0100   55.5  49.6    81     W   4.6  13.6       0   0.00   0.00  0.000   55.4  56.6
  05/19/18 0000   56.6  49.8    78     W   5.6  13.3       0   0.00   0.00  0.219   54.1  83.8
  05/18/18 2300   57.7  50.6    77     W   7.0  17.3       0   0.00   0.00  0.219   54.1  83.8
  05/18/18 2200   58.0  51.0    77     W   7.0  18.3       0   0.00   0.00  0.218   54.1  83.8
  05/18/18 2100   60.0  51.4    73     W   7.0  17.4       2   0.00   0.00  0.218   54.1  83.8
  05/18/18 2000   63.5  52.7    68     W   8.8  19.2      77   0.00   0.00  0.217   54.1  83.8
  05/18/18 1900   70.8  54.2    56   WSW   8.3  17.8     235   0.00   0.00  0.215   54.1  83.8
  05/18/18 1800   74.5  55.5    51   WSW   8.1  17.1     433   0.00   0.00  0.206   54.1  83.8
  05/18/18 1700   76.6  56.6    50   WSW   8.5  19.9     568   0.00   0.00  0.192   54.1  83.8
  05/18/18 1600   82.6  58.7    44     W   7.1  15.7     740   0.00   0.00  0.174   54.1  83.8
  05/18/18 1500   82.4  57.1    42     W   5.7  15.3     875   0.00   0.00  0.151   54.1  83.7
  05/18/18 1400   78.4  56.3    47     W   6.4  14.5     926   0.00   0.00  0.125   54.1  80.9
  05/18/18 1300   76.0  57.2    52     W   7.2  14.8     926   0.00   0.00  0.099   54.1  76.6
  05/18/18 1200   72.5  55.1    54     W   8.0  17.5     862   0.00   0.00  0.075   54.1  72.9
  05/18/18 1100   69.7  54.4    58     W   7.5  16.7     745   0.00   0.00  0.053   54.1  69.8
  05/18/18 1000   66.7  53.6    63     W   7.4  15.1     597   0.00   0.00  0.034   54.1  67.4
  05/18/18 0900   63.7  52.7    67     W   7.6  17.2     415   0.00   0.00  0.019   54.1  64.7
  05/18/18 0800   60.3  51.9    74     W   7.1  16.3     225   0.00   0.00  0.009   54.1  60.8
  05/18/18 0700   57.9  51.5    79     W   5.3  14.5      66   0.00   0.00  0.004   54.1  57.9
  05/18/18 0600   54.6  50.3    85   WSW   4.8  11.7       2   0.00   0.00  0.001   54.1  56.5
  05/18/18 0500   54.4  50.1    85     W   3.9   9.2       0   0.00   0.00  0.000   54.1  56.5
  05/18/18 0400   54.8  49.9    83     W   4.4  11.9       0   0.00   0.00  0.000   54.8  56.5
  05/18/18 0300   55.3  49.5    81     W   4.9  13.4       0   0.00   0.00  0.000   55.2  56.5
  05/18/18 0200   55.8  49.3    79     W   4.5  10.7       0   0.00   0.00  0.000   55.4  56.5
  05/18/18 0100   56.0  49.1    78     W   6.8  15.7       0   0.00   0.00  0.000   56.0  56.5
  05/18/18 0000   56.4  49.0    76   WSW   8.7  21.4       0   0.00   0.00  0.225   46.1  83.1
  05/17/18 2300   56.8  49.3    76     W   8.6  18.2       0   0.00   0.00  0.225   46.1  83.1
  05/17/18 2200   57.2  49.8    76     W   8.1  20.1       0   0.00   0.00  0.224   46.1  83.1
  05/17/18 2100   58.4  50.7    76     W   7.7  21.0       2   0.00   0.00  0.223   46.1  83.1
  05/17/18 2000   61.5  51.2    69     W   9.7  22.8      73   0.00   0.00  0.223   46.1  83.1
  05/17/18 1900   68.5  52.3    56     W   9.6  23.6     242   0.00   0.00  0.220   46.1  83.1
  05/17/18 1800   73.9  52.0    46     W   9.8  20.7     431   0.00   0.00  0.211   46.1  83.1
  05/17/18 1700   78.3  52.6    41   WSW   7.6  16.9     609   0.00   0.00  0.196   46.1  83.1
  05/17/18 1600   82.2  55.1    39     W   5.6  13.5     762   0.00   0.00  0.177   46.1  83.1
  05/17/18 1500   82.3  55.3    40     W   4.6  12.7     872   0.00   0.00  0.154   46.1  82.9
  05/17/18 1400   79.9  52.7    39   WNW   4.4  10.8     927   0.00   0.00  0.128   46.1  81.1
  05/17/18 1300   77.1  52.7    43   WNW   4.3  11.1     927   0.00   0.00  0.102   46.1  79.0
  05/17/18 1200   74.7  54.1    49   WNW   3.8  13.7     862   0.00   0.00  0.076   46.1  75.3
  05/17/18 1100   71.5  52.0    50   WNW   4.4  11.0     745   0.00   0.00  0.053   46.1  72.8
  05/17/18 1000   69.3  53.2    56   WNW   5.1  10.8     600   0.00   0.00  0.034   46.1  69.4
  05/17/18 0900   65.9  51.8    60     W   5.5  12.1     417   0.00   0.00  0.018   46.1  66.1
  05/17/18 0800   62.2  52.3    70   WSW   4.5  11.5     229   0.00   0.00  0.008   46.1  62.2
  05/17/18 0700   56.7  50.3    79   WNW   2.2   5.9      69   0.00   0.00  0.002   46.1  56.7
  05/17/18 0600   49.2  47.1    92   WNW   1.2   3.6       1   0.00   0.00  0.000   46.1  55.3
  05/17/18 0500   46.2  44.5    94   WNW   0.9   2.3       0   0.00   0.00  0.000   46.2  55.3
  05/17/18 0400   48.3  46.2    92     W   1.1   3.9       0   0.00   0.00  0.000   47.9  55.3
  05/17/18 0300   52.3  47.9    85     W   3.5   9.8       0   0.00   0.00  0.000   52.3  55.3
  05/17/18 0200   54.0  48.8    82   WNW   4.4  11.7       0   0.00   0.00  0.000   53.9  55.3
  05/17/18 0100   54.7  48.7    80     W   5.0  12.1       0   0.00   0.00  0.000   54.7  55.3
  05/17/18 0000   55.3  48.9    79     W   5.5  13.3       0   0.00   0.00  0.181   54.6  77.7
  05/16/18 2300   56.6  48.8    75     W   5.7  12.9       0   0.00   0.00  0.181   54.6  77.7
  05/16/18 2200   58.2  46.5    65     W   4.8  11.5       0   0.00   0.00  0.181   54.6  77.7
  05/16/18 2100   60.0  44.3    56     W   5.4  11.6       2   0.00   0.00  0.180   54.6  77.7
  05/16/18 2000   63.0  45.2    52     W   5.9  13.9      73   0.00   0.00  0.179   54.6  77.7
  05/16/18 1900   67.8  45.5    45     W   6.7  15.3     255   0.00   0.00  0.177   54.6  77.7
  05/16/18 1800   68.4  45.5    44     W   6.8  15.8     303   0.00   0.00  0.168   54.6  77.7
  05/16/18 1700   71.3  45.7    40     W   5.9  14.4     497   0.00   0.00  0.158   54.6  77.7
  05/16/18 1600   72.5  45.0    37   WNW   4.4  11.2     728   0.00   0.00  0.144   54.6  77.7
  05/16/18 1500   76.1  46.2    35     W   3.4   9.8     548   0.00   0.00  0.124   54.6  76.4
  05/16/18 1400   72.8  44.6    36   WSW   3.9  12.2     906   0.00   0.00  0.108   54.6  75.6
  05/16/18 1300   72.5  45.0    37   WSW   4.7  11.3     572   0.00   0.00  0.084   54.6  73.2
  05/16/18 1200   69.2  46.1    44   WSW   4.0  12.2     847   0.00   0.00  0.068   54.6  73.2
  05/16/18 1100   68.7  47.0    46   WSW   6.3  18.5     748   0.00   0.00  0.046   54.6  69.6
  05/16/18 1000   65.7  49.2    55   WSW   6.8  16.1     439   0.00   0.00  0.027   54.6  65.8
  05/16/18 0900   60.6  48.8    65     W   6.2  16.3     184   0.00   0.00  0.015   54.6  60.6
  05/16/18 0800   59.1  49.2    70     W   5.5  12.7     182   0.00   0.00  0.009   54.6  60.5
  05/16/18 0700   55.2  48.8    79     W   4.2   9.9      20   0.00   0.00  0.004   54.6  57.6
  05/16/18 0600   54.8  48.2    78     W   4.3  10.7       1   0.00   0.00  0.003   54.6  57.6
  05/16/18 0500   54.9  48.1    78     W   5.9  13.2       0   0.00   0.00  0.002   54.7  57.6
  05/16/18 0400   55.2  47.8    76     W   5.8  13.3       0   0.00   0.00  0.001   55.2  57.6
  05/16/18 0300   55.3  47.5    75     W   5.3  12.4       0   0.00   0.00  0.001   55.2  57.6
  05/16/18 0200   55.7  48.0    75     W   6.0  13.9       0   0.00   0.00  0.001   55.7  57.6
  05/16/18 0100   56.2  48.3    75     W   7.0  21.9       0   0.00   0.00  0.001   56.2  57.6
  05/16/18 0000   57.4  48.3    72     W   8.4  19.3       0   0.00   0.00  0.216   52.1  77.4
  05/15/18 2300   57.8  48.7    72     W   8.4  18.1       0   0.00   0.00  0.215   52.1  77.4
  05/15/18 2200   58.2  48.0    69     W   8.4  18.5       0   0.00   0.00  0.214   52.1  77.4
  05/15/18 2100   58.6  47.7    67     W   9.4  20.7       1   0.00   0.00  0.213   52.1  77.4
  05/15/18 2000   61.2  47.6    61     W   9.0  22.1      52   0.00   0.00  0.212   52.1  77.4
  05/15/18 1900   66.0  47.5    51     W   9.3  21.5     234   0.00   0.00  0.209   52.1  77.4
  05/15/18 1800   70.1  49.9    49     W   8.1  17.9     355   0.00   0.00  0.201   52.1  77.4
  05/15/18 1700   73.5  50.8    45     W   7.5  17.3     600   0.00   0.00  0.190   52.1  77.4
  05/15/18 1600   75.8  51.3    42     W   6.8  15.6     755   0.00   0.00  0.172   52.1  77.4
  05/15/18 1500   75.5  50.9    42     W   7.3  17.4     868   0.00   0.00  0.151   52.1  76.5
  05/15/18 1400   74.3  51.8    45     W   7.2  18.0     926   0.00   0.00  0.127   52.1  75.3
  05/15/18 1300   72.0  48.8    44     W   7.2  17.3     925   0.00   0.00  0.101   52.1  73.4
  05/15/18 1200   70.3  49.4    47     W   6.4  16.8     860   0.00   0.00  0.077   52.1  72.5
  05/15/18 1100   68.4  48.2    48   WNW   5.9  17.2     746   0.00   0.00  0.054   52.1  69.4
  05/15/18 1000   66.1  47.5    51     W   6.6  14.8     601   0.00   0.00  0.035   52.1  67.6
  05/15/18 0900   63.3  49.0    60   WNW   7.1  17.2     418   0.00   0.00  0.020   52.1  63.6
  05/15/18 0800   60.8  48.8    65   WNW   5.5  14.6     228   0.00   0.00  0.009   52.1  61.0
  05/15/18 0700   57.3  48.9    73   WNW   3.5   8.7      63   0.00   0.00  0.003   52.1  57.3
  05/15/18 0600   52.4  47.4    83    NW   3.5  10.1       1   0.00   0.00  0.001   52.3  55.8
  05/15/18 0500   53.3  47.9    82   WNW   3.6   9.3       0   0.00   0.00  0.000   53.1  55.8
  05/15/18 0400   54.1  48.8    82     W   4.6  11.1       0   0.00   0.00  0.000   53.6  55.8
  05/15/18 0300   54.2  48.7    82   WNW   5.4  12.6       0   0.00   0.00  0.000   53.9  55.8
  05/15/18 0200   54.5  49.0    82   WNW   4.8  13.2       0   0.00   0.00  0.000   54.2  55.8
  05/15/18 0100   55.6  49.3    79     W   5.9  16.8       0   0.00   0.00  0.000   55.2  55.8
  05/15/18 0000   55.4  49.0    79     W   5.7  18.6       0   0.00   0.00  0.217   52.4  79.3
  05/14/18 2300   56.2  49.3    78   WNW   4.7  10.8       0   0.00   0.00  0.217   52.4  79.3
  05/14/18 2200   57.2  49.0    74   WNW   5.6  16.1       0   0.00   0.00  0.217   52.4  79.3
  05/14/18 2100   59.2  49.1    69   WNW   7.0  14.3       1   0.00   0.00  0.216   52.4  79.3
  05/14/18 2000   62.5  49.4    62     W   7.9  17.0      70   0.00   0.00  0.215   52.4  79.3
  05/14/18 1900   68.0  50.7    54     W   7.7  18.6     238   0.00   0.00  0.213   52.4  79.3
  05/14/18 1800   72.6  51.8    48     W   8.3  19.8     431   0.00   0.00  0.205   52.4  79.3
  05/14/18 1700   75.4  52.2    44     W   8.3  18.1     614   0.00   0.00  0.191   52.4  79.3
  05/14/18 1600   77.4  52.3    41     W   7.2  16.8     767   0.00   0.00  0.173   52.4  79.3
  05/14/18 1500   77.3  52.1    41     W   5.9  14.8     877   0.00   0.00  0.150   52.4  79.3
  05/14/18 1400   77.2  52.2    42   WNW   4.7  11.8     932   0.00   0.00  0.125   52.4  78.5
  05/14/18 1300   74.4  49.9    42   WNW   4.4  11.9     928   0.00   0.00  0.100   52.4  76.0
  05/14/18 1200   71.2  49.8    47     W   5.1  16.1     865   0.00   0.00  0.075   52.4  72.2
  05/14/18 1100   68.6  49.8    51     W   5.3  13.2     748   0.00   0.00  0.053   52.4  69.3
  05/14/18 1000   67.9  50.4    53    NW   3.1  12.7     597   0.00   0.00  0.033   52.4  68.1
  05/14/18 0900   63.9  50.3    61     N   4.3  10.1     415   0.00   0.00  0.019   52.4  64.3
  05/14/18 0800   59.6  49.6    69    NW   5.3  11.8     225   0.00   0.00  0.009   52.4  60.4
  05/14/18 0700   56.6  49.5    77     W   4.4  12.9      60   0.00   0.00  0.003   52.4  56.6
  05/14/18 0600   53.3  48.6    84   WNW   5.1  12.4       1   0.00   0.00  0.001   52.4  54.9
  05/14/18 0500   52.6  48.3    85     W   4.8  11.7       0   0.00   0.00  0.000   52.5  54.9
  05/14/18 0400   53.2  48.3    83   WNW   5.3  12.6       0   0.00   0.00  0.000   52.7  54.9
  05/14/18 0300   53.1  47.9    83   WNW   5.0  13.5       0   0.00   0.00  0.000   52.7  54.9
  05/14/18 0200   53.9  48.4    82   WNW   4.7  13.0       0   0.00   0.00  0.000   53.5  54.9
  05/14/18 0100   53.9  48.0    80   WNW   4.3  12.6       0   0.00   0.00  0.000   53.6  54.9
  05/14/18 0000   54.4  48.1    79   WNW   3.9  11.0       0   0.00   0.00  0.217   48.8  81.2
  05/13/18 2300   56.6  48.3    74   WNW   4.3  11.6       0   0.00   0.00  0.217   48.8  81.2
  05/13/18 2200   57.5  49.2    74   WNW   3.3   8.9       0   0.00   0.00  0.217   48.8  81.2
  05/13/18 2100   61.1  49.9    67     W   5.7  13.4       1   0.00   0.00  0.217   48.8  81.2
  05/13/18 2000   64.3  51.0    62   WNW   6.5  18.4      66   0.00   0.00  0.216   48.8  81.2
  05/13/18 1900   69.7  52.1    53     W   8.3  18.3     232   0.00   0.00  0.214   48.8  81.2